Lanai Airport Lanai City US
ICAO: PHNY
IATA:
Category: Medium
Scheduled Services:

Elevation: 1308 ft
TransAlt. 0 ft.

Airport Communications:
ASOS:118.375
HONOLULU CNTR:119.3
CTAF:122.9
RDO:117.7

PHNY Zoom In..

If you have problems with the map follow the link
https://www.worldairports.se/pages/airport.php?
ICAO=PHNY

Runways:

(A) RW 03 length 5001 ft width 150 ft
ILS 111.10 / hdg 33

(B) RW 21 length 5001 ft width 150 ft
---- / hdg 213

Location; PHNY
Day. 21 / Time. 18.56 Zulu
* Altimeter: 30.02
* Temperature: 24° c. 75.2°f.
* Wind from: 040° Speed 13 kn with Gusts up to 20 kn.
Dewpoint: 21° c.
Visibility: 10 Statute Miles.
Clouds: Clear (automated report).

PHNY 211856Z AUTO 04013G20KT 10SM CLR 24/21 A3002 RMK AO2 SLP142 T02440206


Wind From 040°
Speed 13 kn.

 
 
jpsmedia.com for Web Design worldairports.se 2018   terms of use